In Rescue
 
Open Full Screen Window  High Contrast Mode
Wind Gusting 14 knots
08
October 07, 2022 2:59 PM EDT
Weather Information
Wind Direction
  320 °
Wind Speed
  08 kt (9 mph)
Wind Gust
  14 kt (16 mph)
Altimeter
30.24 in
Visibility
10 SM
Temperature
10° C
50° F
Dewpoint
02° C
36° F
Humidity
58%
1hr Rain Fall
00.00 in.
24hr Rain Fall
00.00 in.
Sky Condition
Overcast @ 3,500 ft
VFR

METAR KMRT 071859Z AUTO 32008G14KT 10SM OVC035 10/02 A3024 RMK AO1

FAA Disclaimer: The data displayed is for advisory purposes only and is not to be used for flight planning or operations.